Time;durP1;ratioP1;P1;durP2;ratioP2;P2;SDS_P1;SDS_P2;PMS_P1;PMS_P2;Temp;Humidity;BMP_temperature;BMP_pressure;BME280_temperature;BME280_humidity;BME280_pressure;Samples;Min_cycle;Max_cycle;Signal;HPM_P1;HPM_P2
2023/05/26 00:01:28;;;;;;;24.05;16.08;;;;;;;;;;6198678;28;20049;-84
2023/05/26 00:04:31;;;;;;;26.52;18.23;;;;;;;;;;6202256;28;20058;-85
2023/05/26 00:07:32;;;;;;;27.35;17.05;;;;;;;;;;6199496;28;20050;-82
2023/05/26 00:10:35;;;;;;;26.73;17.42;;;;;;;;;;6201557;28;20109;-84
2023/05/26 00:13:38;;;;;;;28.10;18.00;;;;;;;;;;6200701;28;20046;-84
2023/05/26 00:16:39;;;;;;;26.50;17.73;;;;;;;;;;6197382;28;20046;-81
2023/05/26 00:19:41;;;;;;;26.10;17.90;;;;;;;;;;6195239;28;20477;-83
2023/05/26 00:22:43;;;;;;;23.05;17.42;;;;;;;;;;6194663;28;20046;-83
2023/05/26 00:25:45;;;;;;;24.98;17.58;;;;;;;;;;6196589;28;20058;-80
2023/05/26 00:28:48;;;;;;;27.25;18.08;;;;;;;;;;6195746;28;20137;-79
2023/05/26 00:31:49;;;;;;;27.37;17.83;;;;;;;;;;6193218;28;20109;-80
2023/05/26 00:34:51;;;;;;;25.52;18.45;;;;;;;;;;6195099;28;20055;-83
2023/05/26 00:37:53;;;;;;;27.77;18.58;;;;;;;;;;6192733;28;20046;-80
2023/05/26 00:40:54;;;;;;;25.05;17.98;;;;;;;;;;6197823;28;20051;-80
2023/05/26 00:43:57;;;;;;;28.42;18.67;;;;;;;;;;6195932;28;20054;-81
2023/05/26 00:46:59;;;;;;;26.17;17.88;;;;;;;;;;6196456;28;20349;-82
2023/05/26 00:50:01;;;;;;;25.52;17.83;;;;;;;;;;6193498;28;20242;-80
2023/05/26 00:53:02;;;;;;;28.80;19.50;;;;;;;;;;6195289;28;20050;-83
2023/05/26 00:56:05;;;;;;;27.50;18.65;;;;;;;;;;6197403;28;20678;-81
2023/05/26 00:59:08;;;;;;;28.85;19.98;;;;;;;;;;6198883;28;20085;-82
2023/05/26 01:02:11;;;;;;;30.15;19.48;;;;;;;;;;6193620;28;20413;-84
2023/05/26 01:05:15;;;;;;;32.67;20.15;;;;;;;;;;6195515;28;20053;-86
2023/05/26 01:08:17;;;;;;;26.35;18.98;;;;;;;;;;6170125;28;20055;-83
2023/05/26 01:11:27;;;;;;;27.42;20.00;;;;;;;;;;6196938;28;20062;-83
2023/05/26 01:14:34;;;;;;;28.33;18.85;;;;;;;;;;6194636;28;20050;-83
2023/05/26 01:17:39;;;;;;;31.13;19.90;;;;;;;;;;6195747;28;20059;-81
2023/05/26 01:20:45;;;;;;;27.92;20.35;;;;;;;;;;6193059;28;20216;-80
2023/05/26 01:23:58;;;;;;;33.90;21.40;;;;;;;;;;6194683;28;20058;-79
2023/05/26 01:27:11;;;;;;;29.30;19.25;;;;;;;;;;6197015;28;20058;-78
2023/05/26 01:30:14;;;;;;;31.00;20.45;;;;;;;;;;6195595;28;20239;-81
2023/05/26 01:33:16;;;;;;;30.30;20.25;;;;;;;;;;6192354;28;20077;-82
2023/05/26 01:36:18;;;;;;;29.98;20.05;;;;;;;;;;6194301;28;20247;-86
2023/05/26 01:39:20;;;;;;;29.48;19.27;;;;;;;;;;6191186;28;20220;-82
2023/05/26 01:42:24;;;;;;;29.23;21.45;;;;;;;;;;6193624;28;20058;-83
2023/05/26 01:45:32;;;;;;;32.90;20.77;;;;;;;;;;6194597;28;20274;-86
2023/05/26 01:48:35;;;;;;;29.83;21.50;;;;;;;;;;6195373;28;20254;-88
2023/05/26 01:51:37;;;;;;;30.08;20.55;;;;;;;;;;6191013;28;20062;-81
2023/05/26 01:54:43;;;;;;;34.78;22.13;;;;;;;;;;6193892;28;20357;-82
2023/05/26 01:57:46;;;;;;;33.33;21.25;;;;;;;;;;6196182;28;20057;-90
2023/05/26 02:00:50;;;;;;;31.90;21.58;;;;;;;;;;6183794;28;20062;-96
2023/05/26 02:03:52;;;;;;;30.70;21.45;;;;;;;;;;6193953;28;20046;-86
2023/05/26 02:06:54;;;;;;;29.00;19.98;;;;;;;;;;6193270;28;20319;-82
2023/05/26 02:09:56;;;;;;;30.52;20.77;;;;;;;;;;6197574;28;20054;-86
2023/05/26 02:12:58;;;;;;;30.58;21.77;;;;;;;;;;6190019;28;20054;-84
2023/05/26 02:16:01;;;;;;;32.33;22.75;;;;;;;;;;6193773;28;20054;-87
2023/05/26 02:19:03;;;;;;;34.17;22.30;;;;;;;;;;6178424;28;20054;-84
2023/05/26 02:22:05;;;;;;;35.20;21.13;;;;;;;;;;6170412;28;20450;-87
2023/05/26 02:25:07;;;;;;;30.20;21.50;;;;;;;;;;6139930;28;20118;-85
2023/05/26 02:28:09;;;;;;;28.98;21.02;;;;;;;;;;6170298;28;20046;-88
2023/05/26 02:31:12;;;;;;;34.35;23.02;;;;;;;;;;6172385;28;20070;-92
2023/05/26 02:34:14;;;;;;;32.17;22.60;;;;;;;;;;6169006;28;20105;-82
2023/05/26 02:37:17;;;;;;;33.38;22.00;;;;;;;;;;6168772;28;20903;-79
2023/05/26 02:40:18;;;;;;;33.33;22.17;;;;;;;;;;6173813;28;20054;-81
2023/05/26 02:43:23;;;;;;;31.60;21.60;;;;;;;;;;6181591;28;20058;-81
2023/05/26 02:46:26;;;;;;;34.33;22.92;;;;;;;;;;6166350;28;20047;-81
2023/05/26 02:49:28;;;;;;;35.33;22.83;;;;;;;;;;6172577;28;20093;-79
2023/05/26 02:52:29;;;;;;;32.05;22.20;;;;;;;;;;6169472;28;20153;-81
2023/05/26 02:55:31;;;;;;;31.58;21.33;;;;;;;;;;6167835;28;20442;-79
2023/05/26 02:58:32;;;;;;;33.90;22.00;;;;;;;;;;6187118;28;20215;-81
2023/05/26 03:01:36;;;;;;;35.00;22.45;;;;;;;;;;6170046;28;20125;-81
2023/05/26 03:04:37;;;;;;;35.95;23.15;;;;;;;;;;6170288;28;20090;-79
2023/05/26 03:07:39;;;;;;;33.22;22.98;;;;;;;;;;6168365;28;20066;-79
2023/05/26 03:10:41;;;;;;;31.85;21.98;;;;;;;;;;6167770;28;20053;-79
2023/05/26 03:13:43;;;;;;;30.95;22.25;;;;;;;;;;6171618;28;20054;-79
2023/05/26 03:16:46;;;;;;;33.30;21.75;;;;;;;;;;6182330;28;20050;-80
2023/05/26 03:19:47;;;;;;;37.60;23.90;;;;;;;;;;6168848;28;20055;-81
2023/05/26 03:22:49;;;;;;;34.53;21.58;;;;;;;;;;6178028;28;20330;-80
2023/05/26 03:25:50;;;;;;;34.75;21.83;;;;;;;;;;6171691;28;20051;-80
2023/05/26 03:28:52;;;;;;;34.97;22.42;;;;;;;;;;6170461;28;20046;-79
2023/05/26 03:31:55;;;;;;;36.10;21.42;;;;;;;;;;6168818;28;20059;-79
2023/05/26 03:34:57;;;;;;;30.90;22.83;;;;;;;;;;6171053;28;20078;-80
2023/05/26 03:37:58;;;;;;;29.63;21.15;;;;;;;;;;6169714;28;21182;-82
2023/05/26 03:41:00;;;;;;;30.48;22.10;;;;;;;;;;6166896;28;20055;-82
2023/05/26 03:44:02;;;;;;;35.45;22.98;;;;;;;;;;6173427;28;20174;-82
2023/05/26 03:47:06;;;;;;;34.25;23.27;;;;;;;;;;6179547;28;20054;-81
2023/05/26 03:50:08;;;;;;;33.88;23.02;;;;;;;;;;6170559;28;20054;-84
2023/05/26 03:53:10;;;;;;;35.00;22.85;;;;;;;;;;6172968;28;20054;-82
2023/05/26 03:56:12;;;;;;;33.58;22.65;;;;;;;;;;6189689;28;20528;-86
2023/05/26 03:59:13;;;;;;;33.17;22.38;;;;;;;;;;6172264;28;20315;-81
2023/05/26 04:02:19;;;;;;;38.30;23.27;;;;;;;;;;6170469;28;20339;-81
2023/05/26 04:05:21;;;;;;;33.42;22.75;;;;;;;;;;6172864;28;20122;-81
2023/05/26 04:08:22;;;;;;;33.58;22.98;;;;;;;;;;6172301;28;20239;-81
2023/05/26 04:11:25;;;;;;;35.80;23.60;;;;;;;;;;6175046;28;20051;-81
2023/05/26 04:14:26;;;;;;;32.38;21.48;;;;;;;;;;6193304;28;20038;-80
2023/05/26 04:17:29;;;;;;;36.55;23.98;;;;;;;;;;6196759;28;20058;-81
2023/05/26 04:20:31;;;;;;;47.70;25.43;;;;;;;;;;6195673;28;20050;-81
2023/05/26 04:23:32;;;;;;;37.45;24.55;;;;;;;;;;6196051;28;20469;-82
2023/05/26 04:26:34;;;;;;;38.22;24.13;;;;;;;;;;6196043;28;20074;-80
2023/05/26 04:29:36;;;;;;;34.05;24.13;;;;;;;;;;6195325;28;20121;-80
2023/05/26 04:32:40;;;;;;;40.40;24.58;;;;;;;;;;6196337;28;20101;-81
2023/05/26 04:35:44;;;;;;;43.72;24.38;;;;;;;;;;6197195;28;20137;-81
2023/05/26 04:38:47;;;;;;;37.13;24.15;;;;;;;;;;6191765;28;21050;-80
2023/05/26 04:41:49;;;;;;;169.93;32.10;;;;;;;;;;6194528;28;20054;-84
2023/05/26 04:44:54;;;;;;;40.35;24.38;;;;;;;;;;6196119;28;20229;-82
2023/05/26 04:47:59;;;;;;;136.48;28.83;;;;;;;;;;6197036;28;20054;-80
2023/05/26 04:51:01;;;;;;;58.88;23.88;;;;;;;;;;6197816;28;20400;-81
2023/05/26 04:54:04;;;;;;;33.40;22.45;;;;;;;;;;6193212;28;20059;-82
2023/05/26 04:57:05;;;;;;;32.55;22.45;;;;;;;;;;6197280;28;20295;-81
2023/05/26 05:00:09;;;;;;;35.92;23.20;;;;;;;;;;6197172;28;20058;-83
2023/05/26 05:03:12;;;;;;;34.08;23.15;;;;;;;;;;6193020;28;20062;-84
2023/05/26 05:06:14;;;;;;;35.37;24.03;;;;;;;;;;6196285;28;20057;-80
2023/05/26 05:09:16;;;;;;;38.22;23.48;;;;;;;;;;6195897;28;20109;-81
2023/05/26 05:12:17;;;;;;;36.00;23.23;;;;;;;;;;6195472;28;20096;-82
2023/05/26 05:15:19;;;;;;;42.13;25.08;;;;;;;;;;6196306;28;20108;-85
2023/05/26 05:18:22;;;;;;;34.25;23.08;;;;;;;;;;6197443;28;20062;-84
2023/05/26 05:21:24;;;;;;;37.00;23.47;;;;;;;;;;6193403;28;20054;-82
2023/05/26 05:24:25;;;;;;;35.70;22.55;;;;;;;;;;6193330;28;20046;-83
2023/05/26 05:27:27;;;;;;;31.80;23.67;;;;;;;;;;6195336;28;20050;-83
2023/05/26 05:30:29;;;;;;;34.08;23.00;;;;;;;;;;6193731;28;20061;-84
2023/05/26 05:33:32;;;;;;;34.67;22.63;;;;;;;;;;6198525;28;20058;-83
2023/05/26 05:36:33;;;;;;;36.30;23.85;;;;;;;;;;6194772;28;20061;-82
2023/05/26 05:39:35;;;;;;;33.65;23.30;;;;;;;;;;6193284;28;20062;-82
2023/05/26 05:42:36;;;;;;;36.28;24.05;;;;;;;;;;6195050;28;20351;-83
2023/05/26 05:45:38;;;;;;;34.17;22.58;;;;;;;;;;6196399;28;20057;-83
2023/05/26 05:48:42;;;;;;;38.13;23.65;;;;;;;;;;6195571;28;20054;-82
2023/05/26 05:51:44;;;;;;;31.88;22.67;;;;;;;;;;6192833;28;20053;-83
2023/05/26 05:54:45;;;;;;;34.22;23.05;;;;;;;;;;6195380;28;20101;-81
2023/05/26 05:57:48;;;;;;;33.15;21.80;;;;;;;;;;6194031;28;20058;-85
2023/05/26 06:00:49;;;;;;;28.33;21.50;;;;;;;;;;6195112;28;20054;-82
2023/05/26 06:03:52;;;;;;;29.38;20.38;;;;;;;;;;6190531;28;20055;-85
2023/05/26 06:06:54;;;;;;;29.67;20.03;;;;;;;;;;6195879;28;20054;-84
2023/05/26 06:09:57;;;;;;;31.88;21.98;;;;;;;;;;6192714;28;20445;-83
2023/05/26 06:12:58;;;;;;;32.05;21.10;;;;;;;;;;6190988;28;20061;-82
2023/05/26 06:16:00;;;;;;;33.55;20.83;;;;;;;;;;6192502;28;20042;-82
2023/05/26 06:19:03;;;;;;;29.42;19.92;;;;;;;;;;6194569;28;20056;-84
2023/05/26 06:22:05;;;;;;;29.70;19.23;;;;;;;;;;6193303;28;20061;-83
2023/05/26 06:25:07;;;;;;;31.77;19.15;;;;;;;;;;6195493;28;20583;-83
2023/05/26 06:28:09;;;;;;;27.83;17.60;;;;;;;;;;6191616;28;20065;-84
2023/05/26 06:31:11;;;;;;;25.50;16.70;;;;;;;;;;6192087;28;20054;-82
2023/05/26 06:34:14;;;;;;;21.90;16.00;;;;;;;;;;6193304;28;20256;-80
2023/05/26 06:37:15;;;;;;;22.92;15.18;;;;;;;;;;6193358;28;20077;-78
2023/05/26 06:40:17;;;;;;;21.25;14.25;;;;;;;;;;6190123;28;20081;-87
2023/05/26 06:43:20;;;;;;;23.98;16.00;;;;;;;;;;6190484;28;20062;-80
2023/05/26 06:46:21;;;;;;;23.83;15.48;;;;;;;;;;6197552;28;20398;-84
2023/05/26 06:49:24;;;;;;;22.73;14.52;;;;;;;;;;6195102;28;20065;-80
2023/05/26 06:52:26;;;;;;;24.85;15.93;;;;;;;;;;6189386;28;20069;-79
2023/05/26 06:55:28;;;;;;;23.75;15.80;;;;;;;;;;6195047;28;20112;-77
2023/05/26 06:58:30;;;;;;;20.80;14.43;;;;;;;;;;6195240;28;20182;-78
2023/05/26 07:01:31;;;;;;;22.88;13.80;;;;;;;;;;6194758;28;20117;-79
2023/05/26 07:04:34;;;;;;;18.77;12.50;;;;;;;;;;6195038;28;20046;-78
2023/05/26 07:07:36;;;;;;;17.55;12.95;;;;;;;;;;6193185;28;20050;-78
2023/05/26 07:10:37;;;;;;;16.60;11.50;;;;;;;;;;6193456;28;20280;-79
2023/05/26 07:13:39;;;;;;;18.75;12.30;;;;;;;;;;6194155;28;20058;-81
2023/05/26 07:16:41;;;;;;;18.55;12.30;;;;;;;;;;6193919;28;20384;-80
2023/05/26 07:19:44;;;;;;;15.57;11.25;;;;;;;;;;6193421;28;20050;-80
2023/05/26 07:22:45;;;;;;;16.75;10.00;;;;;;;;;;6193978;28;20043;-80
2023/05/26 07:25:47;;;;;;;12.40;7.80;;;;;;;;;;6194180;28;20378;-78
2023/05/26 07:28:50;;;;;;;12.25;7.35;;;;;;;;;;6200842;28;20053;-77
2023/05/26 07:31:51;;;;;;;7.97;6.40;;;;;;;;;;6197926;28;20172;-80
2023/05/26 07:34:54;;;;;;;12.85;6.20;;;;;;;;;;6197585;28;20066;-86
2023/05/26 07:37:56;;;;;;;12.50;7.50;;;;;;;;;;6195015;28;20046;-81
2023/05/26 07:40:58;;;;;;;12.63;7.75;;;;;;;;;;6197617;28;20054;-81
2023/05/26 07:44:00;;;;;;;10.27;7.00;;;;;;;;;;6194038;28;20050;-82
2023/05/26 07:47:01;;;;;;;11.65;7.50;;;;;;;;;;6198395;28;20050;-84
2023/05/26 07:50:05;;;;;;;14.00;8.82;;;;;;;;;;6195372;28;20257;-83
2023/05/26 07:53:07;;;;;;;13.45;8.32;;;;;;;;;;6197324;28;20125;-80
2023/05/26 07:56:08;;;;;;;13.25;6.82;;;;;;;;;;6196444;28;20224;-83
2023/05/26 07:59:10;;;;;;;14.35;8.48;;;;;;;;;;6199586;28;20054;-82
2023/05/26 08:02:12;;;;;;;15.32;9.40;;;;;;;;;;6197240;28;20322;-81
2023/05/26 08:05:15;;;;;;;13.07;8.38;;;;;;;;;;6200039;28;20050;-82
2023/05/26 08:08:16;;;;;;;12.25;7.93;;;;;;;;;;6195495;28;20058;-79
2023/05/26 08:11:18;;;;;;;15.00;7.75;;;;;;;;;;6196841;28;20100;-78
2023/05/26 08:14:22;;;;;;;14.27;8.20;;;;;;;;;;6195304;28;20499;-78
2023/05/26 08:17:24;;;;;;;8.70;6.38;;;;;;;;;;6196281;28;20073;-76
2023/05/26 08:20:27;;;;;;;8.05;6.35;;;;;;;;;;6195142;28;20054;-79
2023/05/26 08:23:28;;;;;;;7.93;5.82;;;;;;;;;;6196034;28;20230;-79
2023/05/26 08:26:30;;;;;;;12.32;5.63;;;;;;;;;;6197563;28;20062;-81
2023/05/26 08:29:32;;;;;;;9.88;5.57;;;;;;;;;;6197411;28;20101;-82
2023/05/26 08:32:34;;;;;;;7.32;5.18;;;;;;;;;;6197284;28;20050;-82
2023/05/26 08:35:37;;;;;;;8.35;4.78;;;;;;;;;;6198001;28;20053;-81
2023/05/26 08:38:39;;;;;;;;;;;;;;;;;;6193265;28;20058;-82
2023/05/26 08:41:44;;;;;;;12.57;5.70;;;;;;;;;;6194490;28;20209;-83
2023/05/26 08:44:46;;;;;;;7.60;5.22;;;;;;;;;;6192808;28;20334;-83
2023/05/26 08:47:48;;;;;;;10.90;5.80;;;;;;;;;;6193881;28;20054;-84
2023/05/26 08:50:54;;;;;;;7.47;6.22;;;;;;;;;;6198399;28;20303;-83
2023/05/26 08:53:55;;;;;;;7.97;5.18;;;;;;;;;;6197051;28;20279;-84
2023/05/26 08:56:58;;;;;;;8.18;4.93;;;;;;;;;;6195947;28;20369;-85
2023/05/26 09:00:00;;;;;;;12.32;5.53;;;;;;;;;;6197979;28;20058;-84
2023/05/26 09:03:02;;;;;;;10.93;7.82;;;;;;;;;;6198644;28;20055;-84
2023/05/26 09:06:06;;;;;;;9.17;6.20;;;;;;;;;;6195840;28;20042;-84
2023/05/26 09:09:07;;;;;;;7.15;5.70;;;;;;;;;;6194441;28;21100;-84
2023/05/26 09:12:11;;;;;;;11.52;6.20;;;;;;;;;;6196095;28;20289;-84
2023/05/26 09:15:12;;;;;;;9.90;6.53;;;;;;;;;;6195474;28;20066;-81
2023/05/26 09:18:14;;;;;;;12.95;7.15;;;;;;;;;;6192376;28;20319;-78
2023/05/26 09:21:18;;;;;;;11.80;6.93;;;;;;;;;;6194113;28;21460;-78
2023/05/26 09:24:23;;;;;;;9.35;5.80;;;;;;;;;;6193717;28;21100;-77
2023/05/26 09:27:24;;;;;;;11.10;6.25;;;;;;;;;;6196172;28;20054;-80
2023/05/26 09:30:28;;;;;;;10.02;6.50;;;;;;;;;;6195369;28;20050;-80
2023/05/26 09:33:30;;;;;;;7.90;5.78;;;;;;;;;;6195694;28;20117;-78
2023/05/26 09:36:36;;;;;;;7.03;5.13;;;;;;;;;;6194194;28;20339;-78
2023/05/26 09:39:37;;;;;;;7.97;5.22;;;;;;;;;;6194619;28;20081;-77
2023/05/26 09:42:39;;;;;;;9.27;5.57;;;;;;;;;;6191709;28;20055;-78
2023/05/26 09:45:41;;;;;;;8.40;5.72;;;;;;;;;;6193735;28;20242;-80
2023/05/26 09:48:50;;;;;;;6.93;5.50;;;;;;;;;;6196914;28;20055;-81
2023/05/26 09:51:54;;;;;;;9.48;6.50;;;;;;;;;;6190493;28;20208;-81
2023/05/26 09:54:56;;;;;;;9.75;5.75;;;;;;;;;;6196622;28;20361;-80
2023/05/26 09:58:04;;;;;;;7.32;5.63;;;;;;;;;;6194594;28;20054;-82
2023/05/26 10:01:06;;;;;;;9.25;6.78;;;;;;;;;;6193107;28;20054;-81
2023/05/26 10:04:08;;;;;;;10.57;6.50;;;;;;;;;;6192429;28;20050;-81
2023/05/26 10:07:11;;;;;;;10.67;7.43;;;;;;;;;;6197831;28;20065;-79
2023/05/26 10:10:14;;;;;;;10.15;6.55;;;;;;;;;;6195136;28;20350;-81
2023/05/26 10:13:17;;;;;;;10.93;6.43;;;;;;;;;;6193101;28;20242;-80
2023/05/26 10:16:18;;;;;;;12.07;7.43;;;;;;;;;;6194417;28;20066;-83
2023/05/26 10:19:20;;;;;;;11.67;8.40;;;;;;;;;;6193586;28;20058;-81
2023/05/26 10:22:28;;;;;;;11.77;7.30;;;;;;;;;;6192330;28;20348;-82
2023/05/26 10:25:32;;;;;;;9.63;6.38;;;;;;;;;;6192405;28;20072;-83
2023/05/26 10:28:38;;;;;;;6.32;5.40;;;;;;;;;;6191605;28;22740;-84
2023/05/26 10:31:40;;;;;;;11.70;6.65;;;;;;;;;;6194429;28;20128;-82
2023/05/26 10:34:44;;;;;;;9.10;6.90;;;;;;;;;;6166542;28;20054;-78
2023/05/26 10:37:49;;;;;;;9.45;6.28;;;;;;;;;;6194023;28;21406;-83
2023/05/26 10:40:52;;;;;;;9.70;7.25;;;;;;;;;;6191069;28;21479;-81
2023/05/26 10:43:54;;;;;;;8.00;6.68;;;;;;;;;;6191439;28;20238;-81
2023/05/26 10:47:02;;;;;;;;;;;;;;;;;;6194348;28;20231;-82
2023/05/26 10:50:05;;;;;;;9.32;7.07;;;;;;;;;;6192802;28;20578;-82
2023/05/26 10:53:19;;;;;;;8.40;6.13;;;;;;;;;;6195050;28;20294;-83
2023/05/26 10:56:25;;;;;;;12.93;8.45;;;;;;;;;;6191977;28;20057;-81
2023/05/26 10:59:31;;;;;;;13.82;8.48;;;;;;;;;;6194361;28;25962;-80
2023/05/26 11:02:37;;;;;;;11.93;9.10;;;;;;;;;;6190970;28;20054;-83
2023/05/26 11:05:38;;;;;;;10.60;7.53;;;;;;;;;;6194489;28;20110;-81
2023/05/26 11:08:46;;;;;;;14.40;10.15;;;;;;;;;;6195701;28;20066;-82
2023/05/26 11:11:52;;;;;;;11.07;8.55;;;;;;;;;;6194950;28;20215;-83
2023/05/26 11:14:54;;;;;;;10.68;9.30;;;;;;;;;;6193561;28;20057;-82
2023/05/26 11:17:57;;;;;;;10.68;8.73;;;;;;;;;;6193380;28;20061;-83
2023/05/26 11:20:59;;;;;;;10.98;8.55;;;;;;;;;;6190619;28;20089;-86
2023/05/26 11:24:03;;;;;;;10.88;8.20;;;;;;;;;;6196265;28;20057;-81
2023/05/26 11:27:06;;;;;;;14.52;9.43;;;;;;;;;;6192028;28;20046;-77
2023/05/26 11:30:09;;;;;;;13.23;8.63;;;;;;;;;;6195479;28;20235;-81
2023/05/26 11:33:12;;;;;;;13.80;8.52;;;;;;;;;;6191871;28;20066;-81
2023/05/26 11:36:14;;;;;;;11.43;8.93;;;;;;;;;;6190183;28;20118;-80
2023/05/26 11:39:18;;;;;;;9.30;7.18;;;;;;;;;;6192535;28;20054;-81
2023/05/26 11:42:19;;;;;;;10.60;7.53;;;;;;;;;;6194976;28;20117;-80
2023/05/26 11:45:22;;;;;;;12.63;8.25;;;;;;;;;;6194444;28;20255;-82
2023/05/26 11:48:23;;;;;;;9.13;7.82;;;;;;;;;;6192054;28;20104;-78
2023/05/26 11:51:25;;;;;;;10.80;8.33;;;;;;;;;;6192843;28;20188;-78
2023/05/26 11:54:28;;;;;;;12.25;8.80;;;;;;;;;;6193708;28;20472;-79
2023/05/26 11:57:33;;;;;;;14.38;8.68;;;;;;;;;;6194965;28;20337;-78
2023/05/26 12:00:38;;;;;;;12.98;8.68;;;;;;;;;;6194049;28;20097;-78
2023/05/26 12:03:41;;;;;;;10.32;8.02;;;;;;;;;;6193323;28;20058;-79
2023/05/26 12:06:44;;;;;;;11.68;8.65;;;;;;;;;;6193828;28;20118;-78
2023/05/26 12:09:47;;;;;;;13.25;9.52;;;;;;;;;;6194240;28;20298;-78
2023/05/26 12:12:49;;;;;;;12.63;9.10;;;;;;;;;;6194840;28;20105;-78
2023/05/26 12:15:52;;;;;;;16.02;9.23;;;;;;;;;;6198494;28;20051;-78
2023/05/26 12:18:57;;;;;;;14.73;8.10;;;;;;;;;;6195369;28;20145;-78
2023/05/26 12:22:00;;;;;;;10.88;7.88;;;;;;;;;;6196567;28;20054;-79
2023/05/26 12:25:02;;;;;;;;;;;;;;;;;;6196590;28;20614;-78
2023/05/26 12:28:04;;;;;;;;;;;;;;;;;;6189529;28;19918;-78
2023/05/26 12:31:06;;;;;;;11.02;8.45;;;;;;;;;;6194438;28;19926;-78
2023/05/26 12:34:07;;;;;;;10.93;7.50;;;;;;;;;;6199467;28;20053;-78
2023/05/26 12:37:09;;;;;;;10.82;8.07;;;;;;;;;;6197453;28;20054;-80
2023/05/26 12:40:13;;;;;;;8.57;6.07;;;;;;;;;;6192892;28;20401;-79
2023/05/26 12:43:16;;;;;;;12.57;8.38;;;;;;;;;;6194581;28;20097;-79
2023/05/26 12:46:18;;;;;;;8.57;7.50;;;;;;;;;;6196149;28;20054;-79
2023/05/26 12:49:19;;;;;;;7.35;5.78;;;;;;;;;;6197837;28;20065;-79
2023/05/26 12:52:22;;;;;;;11.30;6.95;;;;;;;;;;6195704;28;20104;-80
2023/05/26 12:55:25;;;;;;;9.85;7.22;;;;;;;;;;6196345;28;20720;-80
2023/05/26 12:58:26;;;;;;;9.27;6.28;;;;;;;;;;6194454;28;20058;-79
2023/05/26 13:01:28;;;;;;;8.13;5.35;;;;;;;;;;6195535;28;20088;-79
2023/05/26 13:04:30;;;;;;;7.55;6.13;;;;;;;;;;6194654;28;20372;-79
2023/05/26 13:07:36;;;;;;;8.50;5.47;;;;;;;;;;6195097;28;20415;-79
2023/05/26 13:10:39;;;;;;;9.63;5.57;;;;;;;;;;6193868;28;20128;-79
2023/05/26 13:13:42;;;;;;;11.07;7.13;;;;;;;;;;6195297;28;20164;-79
2023/05/26 13:16:44;;;;;;;10.50;6.40;;;;;;;;;;6194519;28;20070;-79
2023/05/26 13:19:46;;;;;;;7.47;4.88;;;;;;;;;;6194656;28;20112;-80
2023/05/26 13:22:47;;;;;;;6.50;5.15;;;;;;;;;;6196499;28;20250;-80
2023/05/26 13:25:51;;;;;;;10.13;5.32;;;;;;;;;;6194072;28;20050;-79
2023/05/26 13:28:52;;;;;;;7.55;4.57;;;;;;;;;;6196158;28;20109;-78
2023/05/26 13:31:55;;;;;;;7.45;4.32;;;;;;;;;;6196974;28;20054;-78
2023/05/26 13:34:56;;;;;;;5.25;3.78;;;;;;;;;;6198037;28;20062;-78
2023/05/26 13:37:58;;;;;;;6.22;5.07;;;;;;;;;;6194430;28;20050;-79
2023/05/26 13:41:01;;;;;;;8.02;5.35;;;;;;;;;;6193820;28;20054;-78
2023/05/26 13:44:03;;;;;;;8.20;4.47;;;;;;;;;;6195631;28;20050;-80
2023/05/26 13:47:05;;;;;;;6.63;4.93;;;;;;;;;;6195509;28;20058;-80
2023/05/26 13:50:07;;;;;;;9.30;4.65;;;;;;;;;;6194457;28;20050;-80
2023/05/26 13:53:09;;;;;;;7.07;4.40;;;;;;;;;;6193546;28;20293;-80
2023/05/26 13:56:12;;;;;;;6.20;4.30;;;;;;;;;;6194135;28;20054;-80
2023/05/26 13:59:13;;;;;;;7.00;4.57;;;;;;;;;;6193861;28;20365;-80
2023/05/26 14:02:15;;;;;;;5.95;3.47;;;;;;;;;;6192511;28;20046;-79
2023/05/26 14:05:18;;;;;;;6.35;3.03;;;;;;;;;;6194897;28;20388;-81
2023/05/26 14:08:20;;;;;;;7.22;3.58;;;;;;;;;;6194946;28;20094;-81
2023/05/26 14:11:23;;;;;;;5.72;3.63;;;;;;;;;;6193061;28;20266;-81
2023/05/26 14:14:25;;;;;;;8.23;2.92;;;;;;;;;;6192822;28;20046;-80
2023/05/26 14:17:27;;;;;;;6.30;3.13;;;;;;;;;;6193891;28;25650;-80
2023/05/26 14:20:29;;;;;;;5.72;3.50;;;;;;;;;;6196122;28;20079;-79
2023/05/26 14:23:31;;;;;;;;;;;;;;;;;;6195435;28;20394;-79
2023/05/26 14:26:34;;;;;;;5.80;3.30;;;;;;;;;;6194962;28;19968;-79
2023/05/26 14:29:35;;;;;;;4.93;2.70;;;;;;;;;;6192630;28;20396;-80
2023/05/26 14:32:37;;;;;;;6.15;3.50;;;;;;;;;;6196560;28;20227;-80
2023/05/26 14:35:39;;;;;;;4.40;2.50;;;;;;;;;;6191412;28;20059;-79
2023/05/26 14:38:45;;;;;;;5.03;2.33;;;;;;;;;;6195248;28;20322;-79
2023/05/26 14:41:48;;;;;;;6.55;2.63;;;;;;;;;;6190991;28;20262;-80
2023/05/26 14:44:50;;;;;;;7.60;3.00;;;;;;;;;;6193585;28;20085;-79
2023/05/26 14:47:51;;;;;;;8.40;3.15;;;;;;;;;;6195510;28;20101;-80
2023/05/26 14:50:53;;;;;;;4.83;2.57;;;;;;;;;;6197273;28;20101;-79
2023/05/26 14:53:55;;;;;;;6.33;3.07;;;;;;;;;;6192585;28;20457;-80
2023/05/26 14:56:58;;;;;;;3.93;2.07;;;;;;;;;;6194636;28;20235;-79
2023/05/26 14:59:59;;;;;;;4.80;2.60;;;;;;;;;;6193989;28;20054;-79
2023/05/26 15:03:01;;;;;;;8.65;2.70;;;;;;;;;;6195015;28;20476;-79
2023/05/26 15:06:04;;;;;;;5.90;2.60;;;;;;;;;;6192142;28;20047;-80
2023/05/26 15:09:07;;;;;;;12.40;2.85;;;;;;;;;;6193921;28;20065;-79
2023/05/26 15:12:10;;;;;;;5.78;2.45;;;;;;;;;;6197592;28;20051;-79
2023/05/26 15:15:11;;;;;;;7.03;2.78;;;;;;;;;;6192298;28;20054;-79
2023/05/26 15:18:13;;;;;;;6.18;2.95;;;;;;;;;;6195780;28;20114;-79
2023/05/26 15:21:15;;;;;;;2.83;1.83;;;;;;;;;;6187982;28;20274;-80
2023/05/26 15:24:17;;;;;;;6.07;2.50;;;;;;;;;;6191902;28;20142;-79
2023/05/26 15:27:20;;;;;;;6.97;2.67;;;;;;;;;;6189847;28;20062;-81
2023/05/26 15:30:22;;;;;;;8.00;3.05;;;;;;;;;;6192632;28;20050;-80
2023/05/26 15:33:24;;;;;;;7.45;2.50;;;;;;;;;;6192222;28;20058;-80
2023/05/26 15:36:26;;;;;;;8.83;2.20;;;;;;;;;;6189648;28;20130;-80
2023/05/26 15:39:27;;;;;;;8.27;1.88;;;;;;;;;;6192863;28;20124;-80
2023/05/26 15:42:30;;;;;;;4.93;2.35;;;;;;;;;;6192302;28;20047;-80
2023/05/26 15:45:32;;;;;;;4.03;1.85;;;;;;;;;;6190372;28;20066;-80
2023/05/26 15:48:34;;;;;;;4.70;2.03;;;;;;;;;;6195257;28;20054;-80
2023/05/26 15:51:36;;;;;;;3.22;2.00;;;;;;;;;;6195039;28;20234;-80
2023/05/26 15:54:38;;;;;;;3.95;1.70;;;;;;;;;;6196281;28;20054;-80
2023/05/26 15:57:41;;;;;;;3.35;1.83;;;;;;;;;;6198975;28;20270;-79
2023/05/26 16:00:42;;;;;;;5.80;1.95;;;;;;;;;;6199265;28;20077;-80
2023/05/26 16:03:44;;;;;;;7.93;2.45;;;;;;;;;;6196401;28;20322;-80
2023/05/26 16:06:46;;;;;;;5.28;2.25;;;;;;;;;;6197242;28;20109;-80
2023/05/26 16:09:48;;;;;;;5.40;1.80;;;;;;;;;;6194086;28;20373;-80
2023/05/26 16:12:51;;;;;;;3.22;2.28;;;;;;;;;;6196762;28;20038;-80
2023/05/26 16:15:52;;;;;;;4.38;1.92;;;;;;;;;;6193207;28;20069;-80
2023/05/26 16:18:54;;;;;;;4.53;1.92;;;;;;;;;;6195823;28;20234;-80
2023/05/26 16:21:55;;;;;;;2.90;1.90;;;;;;;;;;6196523;28;20137;-80
2023/05/26 16:24:57;;;;;;;6.57;2.00;;;;;;;;;;6195796;28;20042;-79
2023/05/26 16:28:00;;;;;;;3.67;1.88;;;;;;;;;;6194463;28;20242;-80
2023/05/26 16:31:02;;;;;;;5.47;1.95;;;;;;;;;;6195898;28;20057;-80
2023/05/26 16:34:04;;;;;;;4.50;1.80;;;;;;;;;;6198472;28;20062;-80
2023/05/26 16:37:05;;;;;;;7.72;2.17;;;;;;;;;;6195050;28;20238;-80
2023/05/26 16:40:08;;;;;;;4.03;1.90;;;;;;;;;;6194542;28;20397;-79
2023/05/26 16:43:11;;;;;;;4.38;1.73;;;;;;;;;;6198574;28;20188;-80
2023/05/26 16:46:13;;;;;;;4.68;1.80;;;;;;;;;;6196273;28;20295;-80
2023/05/26 16:49:14;;;;;;;4.47;2.15;;;;;;;;;;6195211;28;20095;-79
2023/05/26 16:52:16;;;;;;;5.05;2.10;;;;;;;;;;6195540;28;20323;-80
2023/05/26 16:55:18;;;;;;;7.45;2.05;;;;;;;;;;6195933;28;20102;-80
2023/05/26 16:58:21;;;;;;;3.77;2.40;;;;;;;;;;6196114;28;20065;-80
2023/05/26 17:01:22;;;;;;;;;;;;;;;;;;6195762;28;20325;-80
2023/05/26 17:04:24;;;;;;;3.83;2.28;;;;;;;;;;6197339;28;19948;-80
2023/05/26 17:07:26;;;;;;;3.15;2.00;;;;;;;;;;6196121;28;20342;-80
2023/05/26 17:10:27;;;;;;;5.95;1.90;;;;;;;;;;6194373;28;20317;-80
2023/05/26 17:13:30;;;;;;;3.70;2.13;;;;;;;;;;6194374;28;20058;-80
2023/05/26 17:16:32;;;;;;;;;;;;;;;;;;6197900;28;20143;-80
2023/05/26 17:19:33;;;;;;;6.85;2.10;;;;;;;;;;6195657;28;19926;-81
2023/05/26 17:22:35;;;;;;;4.13;1.90;;;;;;;;;;6195805;28;20042;-80
2023/05/26 17:25:37;;;;;;;9.65;2.45;;;;;;;;;;6196615;28;20094;-81
2023/05/26 17:28:41;;;;;;;5.03;2.13;;;;;;;;;;6196685;28;20290;-81
2023/05/26 17:31:43;;;;;;;5.72;2.92;;;;;;;;;;6195973;28;20046;-80
2023/05/26 17:34:45;;;;;;;4.00;2.33;;;;;;;;;;6193854;28;20061;-80
2023/05/26 17:37:46;;;;;;;4.72;2.30;;;;;;;;;;6194474;28;20060;-80
2023/05/26 17:40:48;;;;;;;5.47;2.70;;;;;;;;;;6195396;28;20243;-80
2023/05/26 17:43:51;;;;;;;4.35;1.90;;;;;;;;;;6192304;28;20046;-79
2023/05/26 17:46:52;;;;;;;;;;;;;;;;;;6193986;28;20084;-81
2023/05/26 17:49:54;;;;;;;4.30;2.42;;;;;;;;;;6194924;28;19932;-80
2023/05/26 17:52:56;;;;;;;4.53;2.35;;;;;;;;;;6193938;28;20061;-80
2023/05/26 17:55:58;;;;;;;5.68;3.60;;;;;;;;;;6192268;28;20054;-80
2023/05/26 17:59:01;;;;;;;3.70;2.22;;;;;;;;;;6193307;28;20042;-78